Dauntless Aviation
Airports North America United States Colorado
98CO

NCMC HELIPORT

GREELEY, CO, USA

Airport Info
Suggest Updated Information for this Airport

Location

Latitude / Longitude: 40°24'53"N / 104°42'28"W
  40°24.9'N / 104°42.4667'W
  40.4150 / -104.7078
Elevation: 4882 ft. (estimated)
Variation: 12E (1985)
From city: 00 miles N of GREELEY, CO

Operations

Facility use: Private
Sectional chart: DENVER
Control tower: no
Boundary ARTCC: DENVER
FSS: DENVER [1-800-WX-BRIEF]
Segmented circle: no

Communications

Nearby radio navigation aids

VOR radial/distance VOR name Freq Var
GLL 233oT/8.9 GILL VORTAC 114.20 13E
DVV 353oT/31.5 MILE HIGH VORTAC 114.70 11E
BJC 33oT/36.1 JEFFCO VOR/DME 115.40 11E
DEN 357oT/36.2 DENVER VOR/DME 117.90 11E
 
NDB name Hdg/Dist Freq Var ID

Services

Runway Information

Helipad H1

Dimensions: 40 x 40 ft.
Surface: PORTLAND CEMENT CONCRETE,NO SPECIAL SURFACE TREATMENT
 

Additional Remarks

Instrument Procedures

No published instrument procedures available
Topographic chart at:
Satellite photo at:
Airport distance calculator
From:
Weather Reports

METAR

KGXY
4.2nm NE
KGXY 300455Z 02005KT 9SM SCT005 BKN024 OVC028 01/00 A2993 RMK AO1
KFNL
14.3nm W
KFNL 300455Z AUTO 02005KT 10SM OVC006 02/01 A2993 RMK AO1 P0001
KLMO
25.8nm SW
KLMO 300455Z AUTO 03004KT 5SM UP OVC006 03/02 A2994 RMK AO2 P0001 T00270017
KEIK
28.6nm S
KEIK 300455Z AUTO 00000KT 2SM -SN OVC005 01/01 A2991 RMK AO2 T00070005
KBDU
33.3nm SW
KBDU 300456Z AUTO 00000KT 3SM -RA SCT005 BKN013 OVC020 01/01 A2991 RMK AO2 P0001
KDEN
35.0nm SE
KDEN 300453Z 35004KT 1SM R35L/P6000FT -SN BR SCT003 OVC013 01/M01 A2990 RMK AO2 SFC VIS 1 1/4 SLP131 P0003 T00061011

TAF

KDEN
35.0nm SE
KDEN 300301Z 3003/0106 34008KT 4SM -SN BR OVC005 TEMPO 3003/3005 1SM -SN BR BKN002 FM300500 33007KT 3SM -SN BR BKN010 OVC020 FM300600 32008KT 5SM -SN BR BKN014 OVC025 FM300800 33008KT P6SM VCSH SCT015 OVC030 TEMPO 3008/3011 4SM -SN BR BKN014 FM301100 32010KT 2SM BR VCSH SCT013 OVC028 TEMPO 3011/3015 1/2SM -SN FZFG BKN006 FM301700 36009KT P6SM VCSH SCT010 OVC025 TEMPO 3018/3022 2SM -SN BR OVC014
KBJC
35.3nm S
KBJC 292339Z 3000/3024 34007KT 1 1/2SM -SN BR BKN005 OVC015 TEMPO 3000/3002 3/4SM -SN BR BKN004 FM300200 32006KT 3SM -SN BR BKN010 OVC020 FM300500 31005KT 5SM -SN BR BKN014 OVC025 FM300800 32008KT P6SM VCSH SCT015 OVC030 TEMPO 3008/3011 4SM -SN BR BKN014 FM301100 31008KT 2SM BR VCSH SCT013 OVC028 TEMPO 3011/3015 1/2SM -SN FZFG BKN006 FM301700 36009KT P6SM VCSH SCT010 OVC025 TEMPO 3018/3022 2SM -SN BR OVC014
Safelog

 

Dauntless Aviation

© 2007-2016 Dauntless Aviation, all rights reserved
Information provided via PilotNav comes from a variety of official and unofficial data sources. As errors are possible, do not use PilotNav for primary flight planning purposes. Verify any information that you receive via PilotNav with current and canonical charts and other official documents. The material in this database is subject to database copyrights held by Dauntless Aviation and may not be copied without the express permission of Dauntless Aviation - licenses for use of part of all of this data are available for purchase; enquire via the Dauntless Aviation helpdesk. A number of mechanisms and markers exist in the database to protect against and identify infringement / copyright. Automated queries against this website are stictly prohibited, and all activity is logged and analyzed.